createdAt,value
2022-09-27T00:02:31.457Z,94089.19
2022-09-27T00:05:34.676Z,94089.22
2022-09-27T00:08:36.663Z,94090.34
2022-09-27T00:11:38.644Z,94078.06
2022-09-27T00:14:40.303Z,94080.44
2022-09-27T00:17:41.950Z,94075.63
2022-09-27T00:20:44.939Z,94067.09
2022-09-27T00:23:46.618Z,94057.72
2022-09-27T00:26:48.488Z,94059.25
2022-09-27T00:29:50.072Z,94056.38
2022-09-27T00:32:51.825Z,94052.06
2022-09-27T00:35:54.958Z,94037.53
2022-09-27T00:38:57.116Z,94041.59
2022-09-27T00:41:58.772Z,94038.03
2022-09-27T00:45:08.990Z,94031.53
2022-09-27T00:48:13.562Z,94034.91
2022-09-27T00:51:16.626Z,94032.53
2022-09-27T00:54:18.767Z,94033.03
2022-09-27T00:57:22.503Z,94024.84
2022-09-27T01:00:24.179Z,94019.69
2022-09-27T01:03:29.970Z,94020.78
2022-09-27T01:06:33.038Z,94026.28
2022-09-27T01:09:35.112Z,94021.66
2022-09-27T01:12:42.691Z,94015.81
2022-09-27T01:15:48.632Z,93999.84
2022-09-27T01:19:07.098Z,94003.72
2022-09-27T01:22:15.227Z,94001.69
2022-09-27T01:25:26.922Z,93985.81
2022-09-27T01:28:38.893Z,93981.94
2022-09-27T01:31:43.627Z,93972.97
2022-09-27T01:34:47.721Z,93974.75
2022-09-27T01:37:53.127Z,93964.38
2022-09-27T01:40:59.665Z,93964.69
2022-09-27T01:44:02.877Z,93957.69
2022-09-27T01:47:09.725Z,93967.72
2022-09-27T01:50:15.132Z,93956.59
2022-09-27T01:53:18.933Z,93949.50
2022-09-27T01:56:22.938Z,93943.56
2022-09-27T01:59:26.887Z,93940.97
2022-09-27T02:02:31.555Z,93931.75
2022-09-27T02:05:36.638Z,93926.44
2022-09-27T02:08:40.297Z,93929.56
2022-09-27T02:11:45.200Z,93926.31
2022-09-27T02:14:50.528Z,93906.31
2022-09-27T02:17:56.877Z,93899.84
2022-09-27T02:21:00.846Z,93896.28
2022-09-27T02:24:03.730Z,93895.09
2022-09-27T02:27:09.883Z,93884.81
2022-09-27T02:30:12.937Z,93875.34
2022-09-27T02:33:15.996Z,93873.56
2022-09-27T02:36:17.686Z,93872.59
2022-09-27T02:39:19.730Z,93868.97
2022-09-27T02:42:21.435Z,93864.44
2022-09-27T02:45:23.703Z,93855.28
2022-09-27T02:48:31.593Z,93865.56
2022-09-27T02:51:40.473Z,93860.34
2022-09-27T02:54:47.060Z,93849.97
2022-09-27T02:57:55.875Z,93843.53
2022-09-27T03:01:02.163Z,93842.16
2022-09-27T03:04:10.810Z,93835.56
2022-09-27T03:07:13.319Z,93831.84
2022-09-27T03:10:16.566Z,93833.53
2022-09-27T03:13:18.161Z,93834.28
2022-09-27T03:16:19.829Z,93834.50
2022-09-27T03:19:23.010Z,93825.16
2022-09-27T03:22:24.611Z,93813.56
2022-09-27T03:25:26.358Z,93808.59
2022-09-27T03:28:27.987Z,93817.19
2022-09-27T03:31:29.779Z,93818.69
2022-09-27T03:34:32.867Z,93808.78
2022-09-27T03:37:34.525Z,93810.06
2022-09-27T03:40:36.136Z,93809.94
2022-09-27T03:43:37.856Z,93806.63
2022-09-27T03:46:39.737Z,93809.41
2022-09-27T03:49:43.182Z,93809.66
2022-09-27T03:52:44.923Z,93810.81
2022-09-27T03:55:46.613Z,93814.56
2022-09-27T03:58:48.480Z,93820.56
2022-09-27T04:01:50.301Z,93817.50
2022-09-27T04:04:53.483Z,93815.38
2022-09-27T04:07:55.188Z,93815.66
2022-09-27T04:10:56.888Z,93819.88
2022-09-27T04:13:58.535Z,93823.34
2022-09-27T04:17:00.334Z,93823.06
2022-09-27T04:20:03.774Z,93821.47
2022-09-27T04:23:05.538Z,93825.34
2022-09-27T04:26:07.409Z,93830.78
2022-09-27T04:29:09.158Z,93839.16
2022-09-27T04:32:10.886Z,93841.38
2022-09-27T04:35:14.662Z,93849.97
2022-09-27T04:38:16.239Z,93855.38
2022-09-27T04:41:17.928Z,93853.75
2022-09-27T04:44:20.509Z,93862.38
2022-09-27T04:47:22.122Z,93871.25
2022-09-27T04:50:25.466Z,93865.25
2022-09-27T04:53:27.128Z,93878.34
2022-09-27T04:56:28.710Z,93893.41
2022-09-27T04:59:30.309Z,93907.28
2022-09-27T05:02:32.045Z,93894.81
2022-09-27T05:05:35.221Z,93909.50
2022-09-27T05:08:36.886Z,93915.56
2022-09-27T05:11:38.548Z,93922.78
2022-09-27T05:14:40.136Z,93937.19
2022-09-27T05:17:41.769Z,93934.44
2022-09-27T05:20:44.898Z,93947.34
2022-09-27T05:23:47.920Z,93942.25
2022-09-27T05:26:49.733Z,93939.38
2022-09-27T05:29:51.405Z,93937.03
2022-09-27T05:32:53.131Z,93940.09
2022-09-27T05:35:56.853Z,93938.44
2022-09-27T05:38:58.545Z,93941.09
2022-09-27T05:42:00.175Z,93937.06
2022-09-27T05:45:01.807Z,93920.63
2022-09-27T05:48:03.630Z,93911.91
2022-09-27T05:51:06.732Z,93901.03
2022-09-27T05:54:11.200Z,93891.72
2022-09-27T05:57:12.799Z,93898.00
2022-09-27T06:00:14.602Z,93889.44
2022-09-27T06:03:16.933Z,93886.09
2022-09-27T06:06:19.913Z,93882.72
2022-09-27T06:09:21.561Z,93882.00
2022-09-27T06:12:23.230Z,93880.38
2022-09-27T06:15:25.102Z,93868.13
2022-09-27T06:18:26.696Z,93884.34
2022-09-27T06:21:29.678Z,93877.19
2022-09-27T06:24:31.514Z,93877.88
2022-09-27T06:27:34.123Z,93886.59
2022-09-27T06:30:38.508Z,93888.72
2022-09-27T06:33:40.194Z,93883.19
2022-09-27T06:36:43.157Z,93893.47
2022-09-27T06:39:44.751Z,93899.13
2022-09-27T06:42:46.399Z,93904.81
2022-09-27T06:45:48.194Z,93900.09
2022-09-27T06:48:50.030Z,93907.84
2022-09-27T06:51:53.342Z,93904.06
2022-09-27T06:54:55.069Z,93904.63
2022-09-27T06:57:57.354Z,93915.88
2022-09-27T07:00:59.083Z,93922.78
2022-09-27T07:04:00.899Z,93923.22
2022-09-27T07:07:03.834Z,93913.91
2022-09-27T07:10:09.675Z,93918.84
2022-09-27T07:13:11.760Z,93911.91
2022-09-27T07:16:13.726Z,93918.69
2022-09-27T07:19:15.488Z,93923.59
2022-09-27T07:22:18.562Z,93927.47
2022-09-27T07:25:20.164Z,93931.09
2022-09-27T07:28:22.381Z,93931.09
2022-09-27T07:31:24.255Z,93939.09
2022-09-27T07:34:25.904Z,93938.28
2022-09-27T07:37:28.879Z,93943.75
2022-09-27T07:40:30.608Z,93941.63
2022-09-27T07:43:32.421Z,93949.47
2022-09-27T07:46:34.136Z,93954.28
2022-09-27T07:49:35.824Z,93946.84
2022-09-27T07:52:42.750Z,93949.97
2022-09-27T07:55:44.369Z,93947.47
2022-09-27T07:58:46.694Z,93939.75
2022-09-27T08:01:48.450Z,93964.19
2022-09-27T08:04:50.085Z,93967.66
2022-09-27T08:07:56.200Z,93967.88
2022-09-27T08:10:57.894Z,93965.09
2022-09-27T08:13:59.598Z,93972.50
2022-09-27T08:17:01.180Z,93976.78
2022-09-27T08:20:03.292Z,93962.38
2022-09-27T08:23:06.545Z,93965.78
2022-09-27T08:26:08.227Z,93968.63
2022-09-27T08:29:09.897Z,93979.34
2022-09-27T08:32:12.008Z,93976.88
2022-09-27T08:35:13.712Z,93981.63
2022-09-27T08:38:16.802Z,93977.88
2022-09-27T08:41:24.062Z,93993.19
2022-09-27T08:44:29.847Z,93996.72
2022-09-27T08:47:34.903Z,93988.75
2022-09-27T08:50:40.251Z,93989.38
2022-09-27T08:53:48.199Z,93989.66
2022-09-27T08:56:49.817Z,93994.78
2022-09-27T08:59:59.010Z,93995.09
2022-09-27T09:03:01.755Z,93998.16
2022-09-27T09:06:09.473Z,93983.06
2022-09-27T09:09:18.585Z,93999.88
2022-09-27T09:12:27.428Z,93999.66
2022-09-27T09:15:35.887Z,93993.78
2022-09-27T09:18:47.070Z,93997.41
2022-09-27T09:21:54.619Z,93995.06
2022-09-27T09:25:04.926Z,94001.38
2022-09-27T09:28:13.823Z,93998.81
2022-09-27T09:31:22.094Z,93993.84
2022-09-27T09:34:25.445Z,93995.34
2022-09-27T09:37:33.293Z,93999.66
2022-09-27T09:40:40.560Z,93989.94
2022-09-27T09:43:45.555Z,93992.63
2022-09-27T09:46:49.643Z,93996.38
2022-09-27T09:49:53.834Z,93994.75
2022-09-27T09:52:57.459Z,93988.94
2022-09-27T09:56:02.686Z,94007.88
2022-09-27T09:59:11.009Z,93991.03
2022-09-27T10:02:21.508Z,93972.88
2022-09-27T10:05:23.971Z,93978.78
2022-09-27T10:08:25.760Z,93973.97
2022-09-27T10:11:32.674Z,93975.00
2022-09-27T10:14:34.335Z,93993.66
2022-09-27T10:17:37.332Z,94007.19
2022-09-27T10:20:39.492Z,94014.59
2022-09-27T10:23:55.966Z,94016.63
2022-09-27T10:27:00.477Z,94020.03
2022-09-27T10:30:02.089Z,94009.47
2022-09-27T10:33:05.258Z,94022.88
2022-09-27T10:36:22.400Z,94018.34
2022-09-27T10:39:23.955Z,94045.16
2022-09-27T10:42:34.293Z,94045.50
2022-09-27T10:45:36.142Z,94041.91
2022-09-27T10:48:40.349Z,94035.44
2022-09-27T10:51:43.385Z,94042.09
2022-09-27T10:54:52.838Z,94030.78
2022-09-27T10:57:56.358Z,94027.53
2022-09-27T11:00:59.420Z,94026.16
2022-09-27T11:04:01.147Z,94032.00
2022-09-27T11:07:13.068Z,94050.94
2022-09-27T11:10:22.333Z,94048.59
2022-09-27T11:13:25.414Z,94040.38
2022-09-27T11:16:37.145Z,94050.06
2022-09-27T11:19:52.814Z,94036.56
2022-09-27T11:23:16.609Z,94031.19
2022-09-27T11:26:24.737Z,94035.94
2022-09-27T11:29:33.677Z,94044.09
2022-09-27T11:32:43.500Z,94028.13
2022-09-27T11:35:53.090Z,94032.22
2022-09-27T11:39:02.502Z,94029.59
2022-09-27T11:42:15.049Z,94045.25
2022-09-27T11:48:52.108Z,94022.13
2022-09-27T11:52:00.721Z,94036.50
2022-09-27T11:55:20.099Z,94027.09
2022-09-27T11:58:27.719Z,94043.28
2022-09-27T12:01:38.058Z,94041.50
2022-09-27T12:04:51.442Z,94037.22
2022-09-27T12:08:01.747Z,94048.22
2022-09-27T12:11:10.750Z,94061.72
2022-09-27T12:14:16.656Z,94064.41
2022-09-27T12:17:21.051Z,94072.66
2022-09-27T12:20:24.443Z,94064.75
2022-09-27T12:23:27.497Z,94065.81
2022-09-27T12:26:34.168Z,94064.13
2022-09-27T12:29:37.769Z,94047.81
2022-09-27T12:32:46.693Z,94050.72
2022-09-27T12:35:51.547Z,94058.88
2022-09-27T12:38:56.194Z,94063.59
2022-09-27T12:42:01.559Z,94064.28
2022-09-27T12:45:03.248Z,94057.78
2022-09-27T12:48:12.200Z,94072.91
2022-09-27T12:51:14.907Z,94050.34
2022-09-27T12:54:31.817Z,94047.44
2022-09-27T12:57:39.782Z,94047.03
2022-09-27T13:00:43.789Z,94053.47
2022-09-27T13:04:00.354Z,94054.31
2022-09-27T13:07:11.395Z,94048.09
2022-09-27T13:10:32.832Z,94059.56
2022-09-27T13:13:36.694Z,94068.28
2022-09-27T13:16:42.246Z,94067.81
2022-09-27T13:19:45.303Z,94067.47
2022-09-27T13:22:46.931Z,94068.09
2022-09-27T13:25:53.044Z,94078.13
2022-09-27T13:29:00.758Z,94059.56
2022-09-27T13:32:19.260Z,94061.53
2022-09-27T13:35:23.423Z,94064.31
2022-09-27T13:38:25.111Z,94083.69
2022-09-27T13:41:28.736Z,94088.72
2022-09-27T13:44:38.606Z,94097.50
2022-09-27T13:47:44.556Z,94091.19
2022-09-27T13:50:51.696Z,94088.03
2022-09-27T13:53:57.105Z,94069.34
2022-09-27T13:56:59.568Z,94076.78
2022-09-27T14:00:02.039Z,94082.97
2022-09-27T14:03:06.809Z,94076.78
2022-09-27T14:06:14.001Z,94073.31
2022-09-27T14:09:18.848Z,94067.53
2022-09-27T14:12:21.846Z,94063.63
2022-09-27T14:15:25.203Z,94070.09
2022-09-27T14:18:27.851Z,94067.81
2022-09-27T14:21:32.692Z,94073.28
2022-09-27T14:24:44.409Z,94076.81
2022-09-27T14:27:46.026Z,94081.47
2022-09-27T14:30:47.672Z,94088.88
2022-09-27T14:33:49.684Z,94073.00
2022-09-27T14:36:52.721Z,94062.81
2022-09-27T14:39:55.645Z,94081.41
2022-09-27T14:42:58.767Z,94079.19
2022-09-27T14:46:01.150Z,94085.47
2022-09-27T14:49:11.696Z,94068.06
2022-09-27T14:52:17.880Z,94078.91
2022-09-27T14:55:20.641Z,94078.91
2022-09-27T14:58:45.655Z,94080.53
2022-09-27T15:01:48.547Z,94097.19
2022-09-27T15:04:50.786Z,94084.06
2022-09-27T15:07:54.704Z,94083.69
2022-09-27T15:10:57.050Z,94101.06
2022-09-27T15:13:59.645Z,94105.56
2022-09-27T15:17:01.312Z,94102.44
2022-09-27T15:20:04.598Z,94102.19
2022-09-27T15:23:26.403Z,94104.00
2022-09-27T15:26:35.020Z,94099.53
2022-09-27T15:29:36.702Z,94105.44
2022-09-27T15:32:38.293Z,94116.66
2022-09-27T15:35:39.956Z,94113.00
2022-09-27T15:38:43.786Z,94116.72
2022-09-27T15:42:00.714Z,94122.72
2022-09-27T15:45:02.410Z,94128.13
2022-09-27T15:48:06.522Z,94135.78
2022-09-27T15:51:35.717Z,94131.03
2022-09-27T15:54:38.749Z,94130.56
2022-09-27T15:57:40.807Z,94137.00
2022-09-27T16:00:51.240Z,94154.03
2022-09-27T16:03:52.941Z,94143.44
2022-09-27T16:06:54.625Z,94154.03
2022-09-27T16:09:57.595Z,94144.31
2022-09-27T16:12:59.228Z,94160.59
2022-09-27T16:16:02.297Z,94152.94
2022-09-27T16:19:04.248Z,94146.28
2022-09-27T16:22:05.923Z,94129.13
2022-09-27T16:25:09.142Z,94130.44
2022-09-27T16:28:11.249Z,94126.81
2022-09-27T16:31:13.672Z,94130.19
2022-09-27T16:34:15.314Z,94126.88
2022-09-27T16:37:17.082Z,94122.34
2022-09-27T16:40:20.194Z,94118.78
2022-09-27T16:43:26.356Z,94116.19
2022-09-27T16:46:28.045Z,94112.78
2022-09-27T16:49:29.956Z,94113.41
2022-09-27T16:52:31.975Z,94131.59
2022-09-27T16:55:35.573Z,94133.22
2022-09-27T16:58:37.255Z,94124.44
2022-09-27T17:01:38.905Z,94121.31
2022-09-27T17:04:40.644Z,94136.41
2022-09-27T17:07:42.370Z,94126.78
2022-09-27T17:10:45.717Z,94131.88
2022-09-27T17:13:50.879Z,94126.41
2022-09-27T17:16:52.794Z,94129.88
2022-09-27T17:19:54.470Z,94127.13
2022-09-27T17:22:56.131Z,94120.03
2022-09-27T17:26:09.070Z,94114.63
2022-09-27T17:29:11.000Z,94112.16
2022-09-27T17:32:12.691Z,94113.56
2022-09-27T17:35:14.318Z,94114.59
2022-09-27T17:38:15.981Z,94118.59
2022-09-27T17:41:19.871Z,94118.84
2022-09-27T17:44:21.574Z,94115.56
2022-09-27T17:47:23.299Z,94127.22
2022-09-27T17:50:24.976Z,94127.91
2022-09-27T17:53:26.842Z,94130.31
2022-09-27T17:56:29.848Z,94121.97
2022-09-27T17:59:32.530Z,94119.44
2022-09-27T18:02:34.828Z,94137.88
2022-09-27T18:05:36.835Z,94134.16
2022-09-27T18:08:38.520Z,94137.09
2022-09-27T18:11:41.874Z,94139.84
2022-09-27T18:14:43.995Z,94139.03
2022-09-27T18:17:45.911Z,94142.75
2022-09-27T18:20:47.623Z,94145.38
2022-09-27T18:23:50.023Z,94154.31
2022-09-27T18:26:53.824Z,94141.75
2022-09-27T18:29:55.520Z,94150.72
2022-09-27T18:32:57.099Z,94142.84
2022-09-27T18:36:04.809Z,94138.63
2022-09-27T18:39:06.872Z,94140.56
2022-09-27T18:42:10.065Z,94147.47
2022-09-27T18:45:12.027Z,94161.78
2022-09-27T18:48:13.694Z,94173.84
2022-09-27T18:51:16.455Z,94206.78
2022-09-27T18:54:19.213Z,94215.44
2022-09-27T18:57:22.892Z,94211.69
2022-09-27T19:00:24.934Z,94242.31
2022-09-27T19:03:27.169Z,94215.84
2022-09-27T19:06:28.922Z,94224.09
2022-09-27T19:09:30.525Z,94214.47
2022-09-27T19:12:33.860Z,94219.88
2022-09-27T19:15:35.622Z,94212.16
2022-09-27T19:18:38.276Z,94220.53
2022-09-27T19:21:41.472Z,94227.53
2022-09-27T19:24:43.692Z,94205.31
2022-09-27T19:27:47.097Z,94202.22
2022-09-27T19:30:49.071Z,94204.94
2022-09-27T19:33:52.403Z,94204.13
2022-09-27T19:36:55.774Z,94195.03
2022-09-27T19:39:57.356Z,94210.03
2022-09-27T19:43:00.393Z,94211.19
2022-09-27T19:46:05.821Z,94217.97
2022-09-27T19:49:07.521Z,94211.09
2022-09-27T19:52:09.255Z,94207.19
2022-09-27T19:55:11.417Z,94204.88
2022-09-27T19:58:14.711Z,94195.91
2022-09-27T20:01:17.221Z,94205.16
2022-09-27T20:04:19.164Z,94196.56
2022-09-27T20:07:21.000Z,94203.56
2022-09-27T20:10:22.666Z,94212.53
2022-09-27T20:13:26.362Z,94200.13
2022-09-27T20:16:28.488Z,94202.47
2022-09-27T20:19:30.504Z,94215.88
2022-09-27T20:22:32.174Z,94205.59
2022-09-27T20:25:34.257Z,94215.13
2022-09-27T20:28:40.515Z,94199.06
2022-09-27T20:32:03.010Z,94202.78
2022-09-27T20:35:04.034Z,94219.88
2022-09-27T20:38:05.778Z,94226.41
2022-09-27T20:41:07.563Z,94228.91
2022-09-27T20:44:11.902Z,94219.34
2022-09-27T20:47:13.507Z,94218.06
2022-09-27T20:50:15.149Z,94222.66
2022-09-27T20:53:16.737Z,94218.06
2022-09-27T20:56:19.217Z,94219.19
2022-09-27T20:59:22.856Z,94214.94
2022-09-27T21:02:24.829Z,94228.41
2022-09-27T21:05:26.398Z,94211.94
2022-09-27T21:08:29.268Z,94221.91
2022-09-27T21:11:30.908Z,94211.50
2022-09-27T21:14:33.942Z,94215.00
2022-09-27T21:17:35.541Z,94206.06
2022-09-27T21:20:37.122Z,94206.88
2022-09-27T21:23:44.164Z,94207.97
2022-09-27T21:26:46.263Z,94202.59
2022-09-27T21:29:49.310Z,94197.22
2022-09-27T21:32:52.997Z,94197.22
2022-09-27T21:35:54.664Z,94196.38
2022-09-27T21:38:56.795Z,94193.31
2022-09-27T21:41:58.435Z,94189.78
2022-09-27T21:45:01.481Z,94192.75
2022-09-27T21:48:03.081Z,94199.09
2022-09-27T21:51:05.805Z,94197.63
2022-09-27T21:54:08.470Z,94191.50
2022-09-27T21:57:10.075Z,94182.72
2022-09-27T22:00:13.727Z,94174.94
2022-09-27T22:03:15.310Z,94180.81
2022-09-27T22:06:18.502Z,94178.09
2022-09-27T22:09:20.470Z,94179.97
2022-09-27T22:12:22.033Z,94175.75
2022-09-27T22:15:25.022Z,94181.06
2022-09-27T22:18:26.622Z,94178.34
2022-09-27T22:21:29.007Z,94165.28
2022-09-27T22:24:30.592Z,94167.03
2022-09-27T22:27:32.261Z,94166.78
2022-09-27T22:30:35.477Z,94173.94
2022-09-27T22:33:37.112Z,94169.34
2022-09-27T22:36:38.702Z,94151.16
2022-09-27T22:39:40.276Z,94162.66
2022-09-27T22:42:41.858Z,94143.66
2022-09-27T22:45:44.911Z,94144.00
2022-09-27T22:48:46.511Z,94126.63
2022-09-27T22:51:48.176Z,94135.69
2022-09-27T22:54:49.736Z,94125.69
2022-09-27T22:57:51.329Z,94132.66
2022-09-27T23:00:54.417Z,94125.72
2022-09-27T23:03:56.177Z,94132.91
2022-09-27T23:06:59.708Z,94146.34
2022-09-27T23:10:01.281Z,94137.06
2022-09-27T23:13:02.903Z,94147.38
2022-09-27T23:16:07.416Z,94137.44
2022-09-27T23:19:09.156Z,94136.22
2022-09-27T23:22:10.767Z,94137.81
2022-09-27T23:25:12.338Z,94133.09
2022-09-27T23:28:13.944Z,94129.34
2022-09-27T23:31:17.143Z,94123.97
2022-09-27T23:34:18.933Z,94114.63
2022-09-27T23:37:20.685Z,94119.47
2022-09-27T23:40:22.324Z,94119.94
2022-09-27T23:43:24.221Z,94105.38
2022-09-27T23:46:27.526Z,94099.94
2022-09-27T23:49:29.231Z,94114.16
2022-09-27T23:52:30.834Z,94124.97
2022-09-27T23:55:32.481Z,94122.88
2022-09-27T23:58:34.104Z,94118.69
